Time;durP1;ratioP1;P1;durP2;ratioP2;P2;SDS_P1;SDS_P2;PMS_P1;PMS_P2;Temp;Humidity;BMP_temperature;BMP_pressure;BME280_temperature;BME280_humidity;BME280_pressure;Samples;Min_cycle;Max_cycle;Signal;HPM_P1;HPM_P2
2023/04/02 00:01:19;;;;;;;4.97;3.90;;;7.70;99.90;;;;;;487278;244;28476;-75
2023/04/02 00:03:21;;;;;;;3.70;3.33;;;7.70;99.90;;;;;;487281;244;30186;-75
2023/04/02 00:05:24;;;;;;;3.60;3.30;;;7.70;99.90;;;;;;487233;244;28452;-75
2023/04/02 00:07:29;;;;;;;4.63;4.07;;;7.70;99.90;;;;;;487092;244;27811;-75
2023/04/02 00:09:24;;;;;;;5.13;3.50;;;7.70;99.90;;;;;;486837;244;27846;-75
2023/04/02 00:11:25;;;;;;;4.43;3.50;;;7.70;99.90;;;;;;487260;244;28017;-75
2023/04/02 00:13:26;;;;;;;3.33;3.03;;;7.70;99.90;;;;;;487247;244;27967;-75
2023/04/02 00:15:28;;;;;;;3.67;2.90;;;7.80;99.90;;;;;;487236;244;27839;-75
2023/04/02 00:17:29;;;;;;;3.70;3.33;;;7.80;99.90;;;;;;487315;244;27846;-75
2023/04/02 00:19:30;;;;;;;3.80;3.50;;;7.80;99.90;;;;;;487299;244;27992;-75
2023/04/02 00:21:31;;;;;;;5.00;3.70;;;7.70;99.90;;;;;;487282;244;27896;-75
2023/04/02 00:23:33;;;;;;;5.87;3.90;;;7.70;99.90;;;;;;487246;244;27739;-75
2023/04/02 00:25:34;;;;;;;7.43;3.53;;;7.70;99.90;;;;;;487243;244;27895;-75
2023/04/02 00:27:35;;;;;;;6.93;3.70;;;7.70;99.90;;;;;;487306;244;28006;-75
2023/04/02 00:29:36;;;;;;;3.30;3.00;;;7.70;99.90;;;;;;487297;244;28002;-75
2023/04/02 00:31:38;;;;;;;3.90;3.20;;;7.70;99.90;;;;;;487278;244;27790;-75
2023/04/02 00:33:39;;;;;;;6.60;3.67;;;7.70;99.90;;;;;;487272;244;28871;-75
2023/04/02 00:35:40;;;;;;;3.00;2.80;;;7.70;99.90;;;;;;487265;244;27851;-75
2023/04/02 00:37:42;;;;;;;3.00;2.80;;;7.80;99.90;;;;;;487323;244;28401;-76
2023/04/02 00:39:43;;;;;;;6.33;3.43;;;7.70;99.90;;;;;;487261;244;28494;-75
2023/04/02 00:41:45;;;;;;;5.47;3.70;;;7.70;99.90;;;;;;487284;244;28372;-75
2023/04/02 00:43:45;;;;;;;3.63;3.20;;;7.70;99.90;;;;;;487176;243;27978;-75
2023/04/02 00:45:49;;;;;;;3.30;3.00;;;7.80;99.90;;;;;;487259;244;27974;-75
2023/04/02 00:47:48;;;;;;;3.13;2.83;;;7.70;99.90;;;;;;487104;244;27925;-76
2023/04/02 00:49:49;;;;;;;2.83;2.63;;;7.80;99.90;;;;;;487287;244;27969;-75
2023/04/02 00:51:50;;;;;;;4.43;3.20;;;7.80;99.90;;;;;;487271;244;27938;-75
2023/04/02 00:53:51;;;;;;;4.03;3.60;;;7.80;99.90;;;;;;487253;244;27917;-75
2023/04/02 00:55:53;;;;;;;4.13;3.23;;;7.80;99.90;;;;;;487235;244;27673;-75
2023/04/02 00:57:54;;;;;;;3.60;3.30;;;7.80;99.90;;;;;;487280;244;27813;-75
2023/04/02 00:59:55;;;;;;;2.97;2.70;;;7.80;99.90;;;;;;487261;244;27935;-75
2023/04/02 01:02:00;;;;;;;4.30;2.57;;;7.70;99.90;;;;;;487262;244;27584;-75
2023/04/02 01:03:58;;;;;;;2.90;2.70;;;7.80;99.90;;;;;;487035;244;27887;-75
2023/04/02 01:06:01;;;;;;;3.20;2.37;;;7.80;99.90;;;;;;487205;244;27871;-75
2023/04/02 01:08:00;;;;;;;4.93;3.10;;;7.80;99.90;;;;;;487167;243;27934;-75
2023/04/02 01:10:01;;;;;;;2.80;2.60;;;7.80;99.90;;;;;;487265;244;27875;-75
2023/04/02 01:12:03;;;;;;;2.60;2.40;;;7.70;99.90;;;;;;487295;244;28533;-75
2023/04/02 01:14:04;;;;;;;3.00;2.80;;;7.80;99.90;;;;;;487279;244;29106;-75
2023/04/02 01:16:05;;;;;;;5.40;3.00;;;7.80;99.90;;;;;;487259;244;28379;-75
2023/04/02 01:18:06;;;;;;;5.40;3.03;;;7.80;99.90;;;;;;487299;244;28288;-75
2023/04/02 01:20:08;;;;;;;4.63;3.00;;;7.80;99.90;;;;;;487266;244;28351;-75
2023/04/02 01:22:09;;;;;;;3.73;2.80;;;7.70;99.90;;;;;;487284;244;27903;-75
2023/04/02 01:24:10;;;;;;;2.83;2.63;;;7.70;99.90;;;;;;487259;244;27884;-75
2023/04/02 01:26:11;;;;;;;2.70;2.50;;;7.80;99.90;;;;;;487263;244;27996;-75
2023/04/02 01:28:13;;;;;;;2.80;2.60;;;7.80;99.90;;;;;;487286;244;27911;-75
2023/04/02 01:30:14;;;;;;;3.07;2.77;;;7.70;99.90;;;;;;487266;244;27949;-75
2023/04/02 01:32:15;;;;;;;4.77;2.70;;;7.80;99.90;;;;;;487254;244;27656;-75
2023/04/02 01:34:16;;;;;;;2.80;2.40;;;7.70;99.90;;;;;;487262;244;27953;-75
2023/04/02 01:36:18;;;;;;;3.93;3.30;;;7.80;99.90;;;;;;487309;244;27961;-75
2023/04/02 01:38:20;;;;;;;4.50;3.50;;;7.80;99.90;;;;;;487331;244;28071;-75
2023/04/02 01:40:20;;;;;;;14.00;4.47;;;7.80;99.90;;;;;;487255;244;27841;-75
2023/04/02 01:42:21;;;;;;;4.00;3.60;;;7.80;99.90;;;;;;487304;244;27624;-75
2023/04/02 01:44:23;;;;;;;3.57;3.27;;;7.80;99.90;;;;;;487255;244;28415;-75
2023/04/02 01:46:24;;;;;;;3.97;2.77;;;7.70;99.90;;;;;;487299;244;28008;-75
2023/04/02 01:48:26;;;;;;;3.40;3.00;;;7.70;99.90;;;;;;487192;244;27880;-75
2023/04/02 01:50:30;;;;;;;3.27;2.97;;;7.70;99.90;;;;;;487266;244;28206;-75
2023/04/02 01:52:28;;;;;;;4.03;3.73;;;7.70;99.90;;;;;;487011;244;28391;-75
2023/04/02 01:54:29;;;;;;;4.50;3.37;;;7.70;99.90;;;;;;487226;244;28618;-75
2023/04/02 01:56:30;;;;;;;2.60;2.40;;;7.70;99.90;;;;;;487315;244;28451;-75
2023/04/02 01:58:32;;;;;;;3.60;2.97;;;7.70;99.90;;;;;;487308;244;28633;-75
2023/04/02 02:00:33;;;;;;;3.50;3.20;;;7.70;99.90;;;;;;487278;244;27884;-75
2023/04/02 02:02:34;;;;;;;3.60;3.23;;;7.70;99.90;;;;;;487298;244;27436;-75
2023/04/02 02:04:35;;;;;;;3.87;2.90;;;7.70;99.90;;;;;;487225;243;27750;-75
2023/04/02 02:06:36;;;;;;;3.30;3.00;;;7.70;99.90;;;;;;487315;244;27959;-75
2023/04/02 02:08:37;;;;;;;3.23;2.90;;;7.70;99.90;;;;;;487310;244;27626;-75
2023/04/02 02:10:39;;;;;;;4.40;4.00;;;7.70;99.90;;;;;;487327;244;27635;-75
2023/04/02 02:12:40;;;;;;;4.43;3.43;;;7.70;99.90;;;;;;487304;244;28018;-75
2023/04/02 02:14:41;;;;;;;3.37;2.67;;;7.70;99.90;;;;;;487223;244;27747;-75
2023/04/02 02:16:42;;;;;;;4.00;3.37;;;7.70;99.90;;;;;;487318;243;27639;-75
2023/04/02 02:18:44;;;;;;;3.00;2.80;;;7.70;99.90;;;;;;487325;244;28043;-75
2023/04/02 02:20:45;;;;;;;3.37;2.97;;;7.70;99.90;;;;;;487334;244;27962;-75
2023/04/02 02:22:46;;;;;;;3.40;3.10;;;7.70;99.90;;;;;;487292;244;27959;-75
2023/04/02 02:24:47;;;;;;;3.03;2.83;;;7.70;99.90;;;;;;487204;243;27891;-75
2023/04/02 02:26:49;;;;;;;3.17;2.87;;;7.80;99.90;;;;;;487308;244;28371;-75
2023/04/02 02:28:50;;;;;;;3.53;3.23;;;7.70;99.90;;;;;;487313;244;28427;-75
2023/04/02 02:30:51;;;;;;;4.77;3.43;;;7.70;99.90;;;;;;487310;244;28442;-75
2023/04/02 02:32:52;;;;;;;12.53;3.63;;;7.70;99.90;;;;;;487291;244;28399;-75
2023/04/02 02:34:54;;;;;;;9.23;3.30;;;7.70;99.90;;;;;;487230;244;28396;-75
2023/04/02 02:36:55;;;;;;;14.43;4.80;;;7.70;99.90;;;;;;487319;244;28081;-75
2023/04/02 02:38:56;;;;;;;7.10;3.50;;;7.70;99.90;;;;;;487299;244;27939;-75
2023/04/02 02:40:57;;;;;;;95.07;48.43;;;7.70;99.90;;;;;;487271;244;27876;-75
2023/04/02 02:42:59;;;;;;;34.43;20.63;;;7.70;99.90;;;;;;487271;244;27692;-75
2023/04/02 02:45:00;;;;;;;11.97;8.00;;;7.70;99.90;;;;;;487238;244;27635;-75
2023/04/02 02:47:01;;;;;;;9.40;6.83;;;7.70;99.90;;;;;;487295;244;27507;-75
2023/04/02 02:49:03;;;;;;;7.60;5.40;;;7.70;99.90;;;;;;487327;244;27830;-75
2023/04/02 02:51:04;;;;;;;6.47;4.90;;;7.70;99.90;;;;;;487292;243;27564;-75
2023/04/02 02:53:05;;;;;;;5.43;4.80;;;7.70;99.90;;;;;;487263;244;28051;-75
2023/04/02 02:55:06;;;;;;;6.43;3.87;;;7.80;99.90;;;;;;487245;244;28003;-75
2023/04/02 02:57:07;;;;;;;13.70;5.17;;;7.70;99.90;;;;;;487246;244;27998;-75
2023/04/02 02:59:11;;;;;;;5.23;3.90;;;7.70;99.90;;;;;;487308;244;28165;-75
2023/04/02 03:01:10;;;;;;;5.10;4.27;;;7.70;99.90;;;;;;487203;244;28340;-75
2023/04/02 03:03:11;;;;;;;4.33;3.23;;;7.70;99.90;;;;;;487296;244;28410;-75
2023/04/02 03:05:13;;;;;;;4.60;4.10;;;7.70;99.90;;;;;;487247;244;28189;-75
2023/04/02 03:07:15;;;;;;;3.97;3.60;;;7.70;99.90;;;;;;487271;244;28275;-75
2023/04/02 03:09:16;;;;;;;3.83;3.53;;;7.70;99.90;;;;;;487288;244;28045;-75
2023/04/02 03:11:16;;;;;;;4.63;4.13;;;7.70;99.90;;;;;;487260;244;27942;-75
2023/04/02 03:13:18;;;;;;;4.07;3.77;;;7.70;99.90;;;;;;487289;244;27716;-75
2023/04/02 03:15:19;;;;;;;5.33;3.70;;;7.70;99.90;;;;;;487221;244;27951;-75
2023/04/02 03:17:20;;;;;;;3.50;3.20;;;7.70;99.90;;;;;;487254;244;27924;-75
2023/04/02 03:19:21;;;;;;;3.83;3.53;;;7.70;99.90;;;;;;487315;244;28012;-75
2023/04/02 03:21:22;;;;;;;3.70;3.40;;;7.70;99.90;;;;;;487288;244;27628;-75
2023/04/02 03:23:24;;;;;;;4.17;3.80;;;7.70;99.90;;;;;;487277;244;27954;-75
2023/04/02 03:25:25;;;;;;;4.10;3.70;;;7.70;99.90;;;;;;487238;244;27748;-75
2023/04/02 03:27:26;;;;;;;3.83;3.33;;;7.70;99.90;;;;;;487302;244;27764;-75
2023/04/02 03:29:27;;;;;;;4.13;3.47;;;7.70;99.90;;;;;;487317;244;27981;-75
2023/04/02 03:31:29;;;;;;;4.13;3.40;;;7.70;99.90;;;;;;487298;244;27814;-75
2023/04/02 03:33:30;;;;;;;5.27;3.60;;;7.70;99.90;;;;;;487296;244;27514;-75
2023/04/02 03:35:31;;;;;;;3.23;3.03;;;7.70;99.90;;;;;;487182;244;29264;-75
2023/04/02 03:37:32;;;;;;;3.67;3.30;;;7.70;99.90;;;;;;487276;243;28423;-75
2023/04/02 03:39:34;;;;;;;3.60;3.30;;;7.60;99.90;;;;;;487303;244;28180;-75
2023/04/02 03:41:35;;;;;;;3.20;3.00;;;7.60;99.90;;;;;;487292;244;28537;-75
2023/04/02 03:43:36;;;;;;;2.70;2.50;;;7.60;99.90;;;;;;487234;244;28260;-75
2023/04/02 03:45:37;;;;;;;3.10;2.80;;;7.60;99.90;;;;;;487145;244;27874;-75
2023/04/02 03:47:39;;;;;;;3.10;2.80;;;7.60;99.90;;;;;;487296;244;27786;-75
2023/04/02 03:49:40;;;;;;;3.67;3.37;;;7.60;99.90;;;;;;487324;244;27826;-75
2023/04/02 03:51:41;;;;;;;3.77;3.47;;;7.60;99.90;;;;;;487288;244;27878;-75
2023/04/02 03:53:42;;;;;;;3.67;3.37;;;7.60;99.90;;;;;;487307;243;27800;-75
2023/04/02 03:55:44;;;;;;;5.13;3.53;;;7.60;99.90;;;;;;487184;244;27912;-75
2023/04/02 03:57:45;;;;;;;3.30;3.00;;;7.60;99.90;;;;;;487235;244;27931;-75
2023/04/02 03:59:46;;;;;;;3.90;3.60;;;7.60;99.90;;;;;;487296;244;28256;-75
2023/04/02 04:01:47;;;;;;;3.40;2.97;;;7.60;99.90;;;;;;487289;244;27865;-75
2023/04/02 04:03:49;;;;;;;3.67;3.47;;;7.60;99.90;;;;;;487290;244;27694;-75
2023/04/02 04:05:50;;;;;;;3.23;3.03;;;7.60;99.90;;;;;;487210;244;28005;-75
2023/04/02 04:07:51;;;;;;;3.73;2.97;;;7.60;99.90;;;;;;487253;244;28129;-75
2023/04/02 04:09:52;;;;;;;3.83;3.13;;;7.60;99.90;;;;;;487327;244;27902;-75
2023/04/02 04:11:54;;;;;;;3.40;3.03;;;7.60;99.90;;;;;;487328;244;28270;-75
2023/04/02 04:13:55;;;;;;;3.63;3.33;;;7.60;99.90;;;;;;487314;244;28549;-75
2023/04/02 04:15:56;;;;;;;3.80;3.50;;;7.60;99.90;;;;;;487223;244;28231;-75
2023/04/02 04:18:00;;;;;;;6.50;3.60;;;7.60;99.90;;;;;;487232;244;28520;-75
2023/04/02 04:19:59;;;;;;;4.00;3.27;;;7.60;99.90;;;;;;487104;244;28548;-75
2023/04/02 04:22:00;;;;;;;3.93;3.63;;;7.60;99.90;;;;;;487287;244;28234;-75
2023/04/02 04:24:04;;;;;;;3.67;3.37;;;7.60;99.90;;;;;;487308;244;27997;-75
2023/04/02 04:26:08;;;;;;;3.40;3.10;;;7.60;99.90;;;;;;487252;244;27785;-75
2023/04/02 04:28:07;;;;;;;4.80;3.40;;;7.50;99.90;;;;;;487081;244;27933;-75
2023/04/02 04:30:09;;;;;;;3.47;3.20;;;7.50;99.90;;;;;;487317;244;27801;-75
2023/04/02 04:32:11;;;;;;;3.57;3.27;;;7.50;99.90;;;;;;487307;244;27789;-75
2023/04/02 04:34:11;;;;;;;5.67;3.60;;;7.50;99.90;;;;;;487164;243;27767;-75
2023/04/02 04:36:12;;;;;;;4.03;3.47;;;7.50;99.90;;;;;;487228;244;27923;-75
2023/04/02 04:38:13;;;;;;;2.90;2.70;;;7.50;99.90;;;;;;487293;244;28079;-75
2023/04/02 04:40:16;;;;;;;3.30;3.10;;;7.50;99.90;;;;;;487270;244;28256;-75
2023/04/02 04:42:15;;;;;;;3.50;2.97;;;7.50;99.90;;;;;;487210;244;28539;-75
2023/04/02 04:44:17;;;;;;;3.50;3.20;;;7.50;99.90;;;;;;487261;244;28292;-75
2023/04/02 04:46:18;;;;;;;3.30;3.00;;;7.50;99.90;;;;;;487254;244;28603;-75
2023/04/02 04:48:19;;;;;;;3.40;3.10;;;7.50;99.90;;;;;;487280;244;27593;-75
2023/04/02 04:50:20;;;;;;;3.00;2.60;;;7.50;99.90;;;;;;487265;243;27937;-75
2023/04/02 04:52:22;;;;;;;2.77;2.57;;;7.50;99.90;;;;;;487288;244;28833;-75
2023/04/02 04:54:23;;;;;;;2.83;2.63;;;7.50;99.90;;;;;;487271;244;27977;-75
2023/04/02 04:56:24;;;;;;;3.00;2.80;;;7.50;99.90;;;;;;487302;244;28055;-75
2023/04/02 04:58:25;;;;;;;3.07;2.63;;;7.50;99.90;;;;;;487280;243;27950;-75
2023/04/02 05:00:27;;;;;;;3.20;2.90;;;7.50;99.90;;;;;;487266;244;27941;-75
2023/04/02 05:02:28;;;;;;;4.03;3.13;;;7.50;99.90;;;;;;487287;244;27907;-75
2023/04/02 05:04:29;;;;;;;3.67;3.00;;;7.50;99.90;;;;;;487216;244;27602;-75
2023/04/02 05:06:30;;;;;;;3.63;2.97;;;7.50;99.90;;;;;;487301;244;27948;-75
2023/04/02 05:08:32;;;;;;;2.77;2.57;;;7.50;99.90;;;;;;487270;244;28080;-75
2023/04/02 05:10:34;;;;;;;3.10;2.90;;;7.50;99.90;;;;;;487277;244;27938;-75
2023/04/02 05:12:34;;;;;;;2.83;2.63;;;7.50;99.90;;;;;;487246;244;27958;-75
2023/04/02 05:14:35;;;;;;;2.97;2.77;;;7.40;99.90;;;;;;487248;244;28437;-75
2023/04/02 05:16:37;;;;;;;3.00;2.70;;;7.50;99.90;;;;;;487306;244;28036;-75
2023/04/02 05:18:38;;;;;;;3.83;3.43;;;7.40;99.90;;;;;;487278;244;27863;-75
2023/04/02 05:20:39;;;;;;;3.60;3.30;;;7.40;99.90;;;;;;487259;244;28218;-75
2023/04/02 05:22:40;;;;;;;3.47;3.13;;;7.40;99.90;;;;;;487287;244;28745;-75
2023/04/02 05:24:42;;;;;;;5.30;3.43;;;7.40;99.90;;;;;;487242;244;27565;-75
2023/04/02 05:26:43;;;;;;;8.27;3.67;;;7.50;99.90;;;;;;487313;244;27827;-75
2023/04/02 05:28:44;;;;;;;4.00;3.10;;;7.50;99.90;;;;;;487284;244;27877;-75
2023/04/02 05:30:45;;;;;;;3.13;2.87;;;7.50;99.90;;;;;;487195;244;27991;-74
2023/04/02 05:32:47;;;;;;;3.43;3.23;;;7.50;99.90;;;;;;487274;244;27538;-75
2023/04/02 05:34:48;;;;;;;2.73;2.60;;;7.50;99.90;;;;;;487218;244;27637;-75
2023/04/02 05:36:49;;;;;;;3.33;2.87;;;7.60;99.90;;;;;;487290;244;27672;-75
2023/04/02 05:38:50;;;;;;;4.50;3.30;;;7.60;99.90;;;;;;487302;244;27750;-75
2023/04/02 05:40:52;;;;;;;3.23;3.03;;;7.60;99.90;;;;;;487295;244;27545;-75
2023/04/02 05:42:54;;;;;;;3.40;3.10;;;7.60;99.90;;;;;;487335;244;27899;-75
2023/04/02 05:44:54;;;;;;;3.20;3.00;;;7.60;99.90;;;;;;487151;244;27829;-75
2023/04/02 05:46:56;;;;;;;3.13;2.93;;;7.70;99.90;;;;;;487319;244;27553;-75
2023/04/02 05:48:57;;;;;;;2.47;2.37;;;7.70;99.90;;;;;;487268;244;27941;-75
2023/04/02 05:50:58;;;;;;;8.63;3.83;;;7.70;99.90;;;;;;487298;244;27913;-75
2023/04/02 05:52:59;;;;;;;3.17;2.97;;;7.70;99.90;;;;;;487300;244;28946;-75
2023/04/02 05:55:00;;;;;;;3.30;3.10;;;7.70;99.90;;;;;;487256;243;28398;-75
2023/04/02 05:57:02;;;;;;;3.17;2.97;;;7.80;99.90;;;;;;487316;244;28152;-75
2023/04/02 05:59:03;;;;;;;3.13;2.93;;;7.80;99.90;;;;;;487310;244;28348;-75
2023/04/02 06:01:06;;;;;;;3.67;3.37;;;7.80;99.90;;;;;;487309;244;28359;-75
2023/04/02 06:03:06;;;;;;;3.50;3.13;;;7.90;99.90;;;;;;487185;244;28341;-75
2023/04/02 06:05:07;;;;;;;3.27;3.07;;;7.90;99.90;;;;;;487294;244;27512;-75
2023/04/02 06:07:08;;;;;;;3.27;3.07;;;7.90;99.90;;;;;;487326;244;28000;-75
2023/04/02 06:09:09;;;;;;;3.70;3.17;;;7.90;99.90;;;;;;487286;244;27829;-75
2023/04/02 06:11:10;;;;;;;3.73;3.43;;;7.80;99.90;;;;;;487288;244;28068;-75
2023/04/02 06:13:12;;;;;;;3.20;2.90;;;7.90;99.90;;;;;;487289;244;27743;-75
2023/04/02 06:15:13;;;;;;;4.07;3.77;;;7.90;99.90;;;;;;487284;244;27930;-75
2023/04/02 06:17:15;;;;;;;3.37;3.17;;;7.90;99.90;;;;;;487328;244;27676;-75
2023/04/02 06:19:15;;;;;;;4.70;3.00;;;7.90;99.90;;;;;;487152;244;27687;-75
2023/04/02 06:21:17;;;;;;;3.53;3.20;;;7.90;99.90;;;;;;487291;244;27929;-75
2023/04/02 06:23:18;;;;;;;3.83;3.33;;;7.90;99.90;;;;;;487287;244;27759;-75
2023/04/02 06:25:19;;;;;;;3.83;3.53;;;7.90;99.90;;;;;;487216;244;27909;-75
2023/04/02 06:27:21;;;;;;;3.73;3.43;;;7.90;99.90;;;;;;487315;244;28080;-75
2023/04/02 06:29:22;;;;;;;3.90;3.60;;;7.90;99.90;;;;;;487278;244;27846;-75
2023/04/02 06:31:23;;;;;;;3.27;3.03;;;7.90;99.90;;;;;;487302;244;28378;-75
2023/04/02 06:33:24;;;;;;;4.20;3.90;;;7.90;99.90;;;;;;487271;244;28206;-75
2023/04/02 06:35:25;;;;;;;3.63;3.33;;;7.90;99.90;;;;;;487218;243;28401;-75
2023/04/02 06:37:27;;;;;;;3.60;3.30;;;7.90;99.90;;;;;;487328;244;28404;-75
2023/04/02 06:39:28;;;;;;;4.30;3.90;;;7.90;99.90;;;;;;487322;244;28392;-75
2023/04/02 06:41:29;;;;;;;4.07;3.77;;;7.90;99.90;;;;;;487289;243;27829;-75
2023/04/02 06:43:34;;;;;;;3.80;3.50;;;8.00;99.90;;;;;;487297;244;27825;-75
2023/04/02 06:45:35;;;;;;;3.63;3.37;;;7.90;99.90;;;;;;487134;244;27981;-75
2023/04/02 06:47:37;;;;;;;3.97;3.67;;;8.00;99.90;;;;;;487321;244;27920;-75
2023/04/02 06:49:37;;;;;;;4.33;3.73;;;8.00;99.90;;;;;;487301;244;28031;-75
2023/04/02 06:51:38;;;;;;;4.67;4.27;;;8.00;99.90;;;;;;487313;244;27957;-75
2023/04/02 06:53:40;;;;;;;4.53;4.13;;;8.00;99.90;;;;;;487281;244;27805;-75
2023/04/02 06:55:41;;;;;;;4.43;4.03;;;8.10;99.90;;;;;;487241;244;27707;-75
2023/04/02 06:57:42;;;;;;;5.47;4.40;;;8.10;99.90;;;;;;487312;244;27600;-75
2023/04/02 06:59:43;;;;;;;4.70;4.10;;;8.10;99.90;;;;;;487324;244;28037;-75
2023/04/02 07:01:45;;;;;;;4.00;3.70;;;8.20;99.90;;;;;;487285;244;27894;-75
2023/04/02 07:03:46;;;;;;;4.47;4.07;;;8.20;99.90;;;;;;487280;244;28238;-76
2023/04/02 07:05:47;;;;;;;4.40;3.50;;;8.30;99.90;;;;;;487219;244;27769;-75
2023/04/02 07:07:48;;;;;;;4.50;4.10;;;8.30;99.90;;;;;;487305;244;27887;-75
2023/04/02 07:09:50;;;;;;;4.50;4.10;;;8.40;99.90;;;;;;487309;244;28013;-76
2023/04/02 07:11:51;;;;;;;4.07;3.77;;;8.40;99.90;;;;;;487308;244;27973;-75
2023/04/02 07:13:52;;;;;;;3.70;3.40;;;8.40;99.90;;;;;;487282;244;28119;-75
2023/04/02 07:15:53;;;;;;;3.70;3.40;;;8.50;99.90;;;;;;487202;244;29240;-75
2023/04/02 07:17:58;;;;;;;3.83;3.50;;;8.40;99.90;;;;;;487346;243;27990;-75
2023/04/02 07:19:59;;;;;;;3.93;3.63;;;8.50;99.90;;;;;;487339;244;27869;-75
2023/04/02 07:22:00;;;;;;;3.97;3.27;;;8.50;99.90;;;;;;487304;244;28372;-75
2023/04/02 07:24:01;;;;;;;2.97;2.73;;;8.40;99.90;;;;;;487295;244;27982;-75
2023/04/02 07:26:03;;;;;;;3.67;3.40;;;8.50;99.90;;;;;;487220;244;27950;-76
2023/04/02 07:28:04;;;;;;;3.80;3.50;;;8.50;99.90;;;;;;487341;244;28064;-75
2023/04/02 07:30:06;;;;;;;3.50;3.20;;;8.50;99.90;;;;;;487321;244;27890;-75
2023/04/02 07:32:06;;;;;;;4.33;3.60;;;8.50;99.90;;;;;;487250;244;28009;-76
2023/04/02 07:34:08;;;;;;;3.30;3.00;;;8.50;99.90;;;;;;487262;244;27866;-75
2023/04/02 07:36:09;;;;;;;3.20;3.00;;;8.50;99.90;;;;;;487237;244;27909;-75
2023/04/02 07:38:10;;;;;;;3.50;3.20;;;8.60;99.90;;;;;;487333;244;28279;-75
2023/04/02 07:40:11;;;;;;;3.70;3.40;;;8.70;99.90;;;;;;487352;244;27888;-75
2023/04/02 07:42:13;;;;;;;3.70;3.40;;;8.70;99.90;;;;;;487325;244;27854;-76
2023/04/02 07:44:14;;;;;;;4.40;4.00;;;8.70;99.90;;;;;;487279;244;27963;-75
2023/04/02 07:46:16;;;;;;;6.87;4.07;;;8.90;99.90;;;;;;487246;244;27914;-75
2023/04/02 07:48:16;;;;;;;3.47;3.17;;;8.80;99.90;;;;;;487267;244;27610;-75
2023/04/02 07:50:18;;;;;;;3.67;3.33;;;8.80;99.90;;;;;;487335;244;27776;-75
2023/04/02 07:52:20;;;;;;;4.63;2.97;;;8.90;99.90;;;;;;487334;244;28369;-75
2023/04/02 07:54:20;;;;;;;3.80;3.50;;;8.90;99.90;;;;;;487197;243;28346;-76
2023/04/02 07:56:21;;;;;;;3.53;3.23;;;8.90;99.90;;;;;;487290;244;28278;-75
2023/04/02 07:58:23;;;;;;;3.27;3.07;;;8.90;99.90;;;;;;487346;244;28518;-75
2023/04/02 08:00:24;;;;;;;3.30;3.10;;;9.00;99.90;;;;;;487260;244;28400;-75
2023/04/02 08:02:25;;;;;;;3.27;3.03;;;9.00;99.90;;;;;;487318;244;27626;-75
2023/04/02 08:04:26;;;;;;;3.53;3.20;;;8.90;99.90;;;;;;487229;244;27873;-75
2023/04/02 08:06:28;;;;;;;3.50;3.23;;;8.80;99.90;;;;;;487253;244;27695;-75
2023/04/02 08:08:29;;;;;;;4.60;3.90;;;8.80;99.90;;;;;;487307;244;27896;-75
2023/04/02 08:10:30;;;;;;;3.67;3.37;;;8.80;99.90;;;;;;487290;244;27928;-75
2023/04/02 08:12:31;;;;;;;3.40;3.20;;;8.90;99.90;;;;;;487276;244;27890;-75
2023/04/02 08:14:32;;;;;;;3.40;3.10;;;8.90;99.90;;;;;;487233;244;27501;-75
2023/04/02 08:16:34;;;;;;;2.87;2.67;;;9.00;99.90;;;;;;487223;244;28080;-76
2023/04/02 08:18:35;;;;;;;3.40;3.10;;;8.90;99.90;;;;;;487312;244;28359;-76
2023/04/02 08:20:36;;;;;;;2.90;2.70;;;8.90;99.90;;;;;;487310;244;27902;-76
2023/04/02 08:22:37;;;;;;;3.20;2.73;;;8.90;99.90;;;;;;487289;244;28040;-75
2023/04/02 08:24:39;;;;;;;3.40;3.20;;;9.00;99.90;;;;;;487231;244;27872;-75
2023/04/02 08:26:40;;;;;;;4.30;2.83;;;9.00;99.90;;;;;;487255;244;28040;-75
2023/04/02 08:28:41;;;;;;;2.33;2.23;;;9.00;99.90;;;;;;487293;244;27924;-75
2023/04/02 08:30:43;;;;;;;2.80;2.60;;;9.00;99.90;;;;;;487285;244;28494;-75
2023/04/02 08:32:44;;;;;;;3.20;2.90;;;9.00;99.90;;;;;;487275;244;28537;-76
2023/04/02 08:34:45;;;;;;;2.70;2.50;;;9.00;99.90;;;;;;487234;244;28513;-75
2023/04/02 08:36:46;;;;;;;2.63;2.47;;;8.90;99.90;;;;;;487249;244;28772;-75
2023/04/02 08:38:47;;;;;;;3.17;2.80;;;8.80;99.90;;;;;;487295;244;29105;-75
2023/04/02 08:40:49;;;;;;;3.33;3.03;;;8.80;99.90;;;;;;487317;244;28014;-75
2023/04/02 08:42:50;;;;;;;3.23;3.00;;;8.90;99.90;;;;;;487325;244;27616;-75
2023/04/02 08:44:51;;;;;;;6.90;2.57;;;8.90;99.90;;;;;;487227;244;27838;-75
2023/04/02 08:46:52;;;;;;;3.90;2.67;;;8.80;99.90;;;;;;487272;244;27679;-75
2023/04/02 08:48:54;;;;;;;2.80;2.60;;;8.90;99.90;;;;;;487291;244;28054;-75
2023/04/02 08:50:56;;;;;;;3.43;3.23;;;9.00;99.90;;;;;;487330;244;28025;-76
2023/04/02 08:52:56;;;;;;;4.27;3.40;;;9.00;99.90;;;;;;487291;244;27930;-76
2023/04/02 08:54:59;;;;;;;3.40;3.10;;;9.10;99.90;;;;;;487244;244;27565;-75
2023/04/02 08:56:59;;;;;;;3.10;2.80;;;9.20;99.90;;;;;;487189;244;27968;-76
2023/04/02 08:59:00;;;;;;;3.10;2.80;;;9.20;99.90;;;;;;487273;244;27897;-75
2023/04/02 09:01:01;;;;;;;3.47;3.03;;;9.30;99.90;;;;;;487306;244;27772;-75
2023/04/02 09:03:02;;;;;;;3.27;3.00;;;9.40;99.90;;;;;;487298;244;28042;-75
2023/04/02 09:05:04;;;;;;;3.37;3.07;;;9.40;99.90;;;;;;487276;244;27944;-75
2023/04/02 09:07:05;;;;;;;3.27;2.97;;;9.40;99.90;;;;;;487271;244;28435;-76
2023/04/02 09:09:06;;;;;;;3.17;2.67;;;9.30;99.90;;;;;;487243;244;28849;-75
2023/04/02 09:11:07;;;;;;;2.90;2.53;;;9.30;99.90;;;;;;487310;244;28176;-75
2023/04/02 09:13:09;;;;;;;2.50;2.33;;;9.30;99.90;;;;;;487291;244;28507;-75
2023/04/02 09:15:10;;;;;;;2.50;2.30;;;9.30;99.90;;;;;;487212;244;28347;-75
2023/04/02 09:17:11;;;;;;;2.60;2.40;;;9.20;99.90;;;;;;487279;244;28407;-76
2023/04/02 09:19:12;;;;;;;2.83;2.63;;;9.20;99.90;;;;;;487272;244;27942;-75
2023/04/02 09:21:16;;;;;;;2.40;2.20;;;9.20;99.90;;;;;;487313;243;27628;-75
2023/04/02 09:23:15;;;;;;;2.87;2.67;;;9.20;99.90;;;;;;487198;244;27917;-75
2023/04/02 09:25:16;;;;;;;2.40;2.30;;;9.20;99.90;;;;;;487281;244;27954;-75
2023/04/02 09:27:18;;;;;;;2.80;2.60;;;9.20;99.90;;;;;;487306;244;28053;-75
2023/04/02 09:29:19;;;;;;;4.30;3.27;;;9.30;99.90;;;;;;487284;244;27961;-75
2023/04/02 09:31:20;;;;;;;2.63;2.43;;;9.40;99.90;;;;;;487319;244;28048;-75
2023/04/02 09:33:21;;;;;;;2.63;2.43;;;9.50;99.90;;;;;;487328;244;28105;-75
2023/04/02 09:35:24;;;;;;;2.90;2.60;;;9.60;99.90;;;;;;487254;244;28009;-75
2023/04/02 09:37:24;;;;;;;2.20;2.10;;;9.70;99.90;;;;;;487227;244;27925;-75
2023/04/02 09:39:25;;;;;;;2.90;2.70;;;9.80;99.90;;;;;;487262;244;27763;-75
2023/04/02 09:41:26;;;;;;;2.30;2.20;;;9.80;99.90;;;;;;487266;244;27917;-75
2023/04/02 09:43:27;;;;;;;3.30;2.50;;;9.80;99.90;;;;;;487303;244;27930;-76
2023/04/02 09:45:29;;;;;;;2.27;2.17;;;9.90;99.90;;;;;;487239;244;28219;-75
2023/04/02 09:47:30;;;;;;;2.80;2.60;;;10.00;99.90;;;;;;487315;244;28437;-76
2023/04/02 09:49:31;;;;;;;3.33;2.27;;;9.90;99.90;;;;;;487281;244;28384;-75
2023/04/02 09:51:34;;;;;;;2.60;2.40;;;10.00;99.90;;;;;;487267;244;28474;-75
2023/04/02 09:53:34;;;;;;;2.40;2.20;;;10.10;99.90;;;;;;487262;244;28166;-75
2023/04/02 09:55:35;;;;;;;3.03;1.80;;;10.10;99.90;;;;;;487245;244;27972;-75
2023/04/02 09:57:37;;;;;;;2.70;2.50;;;10.10;99.90;;;;;;487265;244;27896;-75
2023/04/02 09:59:37;;;;;;;2.50;2.30;;;10.10;99.90;;;;;;487215;244;28242;-75
2023/04/02 10:01:39;;;;;;;2.53;2.10;;;10.10;99.90;;;;;;487281;244;28130;-75
2023/04/02 10:03:40;;;;;;;2.97;2.63;;;10.20;99.90;;;;;;487329;244;28422;-76
2023/04/02 10:05:41;;;;;;;2.77;2.50;;;10.20;99.90;;;;;;487253;244;28512;-76
2023/04/02 10:07:43;;;;;;;2.20;2.10;;;10.20;99.90;;;;;;487263;244;28558;-76
2023/04/02 10:09:44;;;;;;;1.70;1.60;;;9.80;99.90;;;;;;487269;244;27795;-76
2023/04/02 10:11:45;;;;;;;3.70;1.70;;;9.80;99.90;;;;;;487300;244;27856;-76
2023/04/02 10:13:46;;;;;;;1.80;1.70;;;9.80;99.90;;;;;;487292;244;27929;-76
2023/04/02 10:15:48;;;;;;;2.03;1.90;;;10.00;99.90;;;;;;487245;244;27911;-76
2023/04/02 10:17:49;;;;;;;1.70;1.60;;;10.10;99.90;;;;;;487263;244;28001;-76
2023/04/02 10:19:50;;;;;;;1.77;1.67;;;10.10;99.90;;;;;;487275;244;28163;-76
2023/04/02 10:21:51;;;;;;;2.40;2.20;;;10.20;99.90;;;;;;487270;244;28112;-75
2023/04/02 10:23:53;;;;;;;1.77;1.63;;;10.20;99.90;;;;;;487312;244;28098;-76
2023/04/02 10:25:54;;;;;;;2.97;1.60;;;10.20;99.90;;;;;;487248;244;28038;-75
2023/04/02 10:27:55;;;;;;;1.60;1.50;;;10.40;99.90;;;;;;487231;243;28116;-76
2023/04/02 10:30:01;;;;;;;1.90;1.80;;;10.60;99.90;;;;;;487229;244;28032;-76
2023/04/02 10:31:58;;;;;;;1.30;1.30;;;10.60;99.90;;;;;;487005;244;28192;-75
2023/04/02 10:34:00;;;;;;;1.67;1.57;;;10.50;99.90;;;;;;487318;244;28226;-76
2023/04/02 10:36:00;;;;;;;1.50;1.40;;;10.40;99.90;;;;;;487226;244;28215;-75
2023/04/02 10:38:01;;;;;;;1.30;1.30;;;10.50;99.90;;;;;;487280;244;28142;-75